createdAt,value
2018-06-15T00:00:50.210Z,69.24
2018-06-15T00:02:00.408Z,69.24
2018-06-15T00:03:11.629Z,69.24
2018-06-15T00:04:21.853Z,69.43
2018-06-15T00:05:32.041Z,68.66
2018-06-15T00:06:42.413Z,69.34
2018-06-15T00:07:52.550Z,69.43
2018-06-15T00:09:02.436Z,69.34
2018-06-15T00:10:12.306Z,69.62
2018-06-15T00:11:22.463Z,69.43
2018-06-15T00:12:32.624Z,69.24
2018-06-15T00:13:42.821Z,69.34
2018-06-15T00:14:53.066Z,69.53
2018-06-15T00:16:03.220Z,69.62
2018-06-15T00:17:13.401Z,69.43
2018-06-15T00:18:23.591Z,69.43
2018-06-15T00:19:33.803Z,69.43
2018-06-15T00:20:44.048Z,69.53
2018-06-15T00:21:54.282Z,69.53
2018-06-15T00:23:04.674Z,69.14
2018-06-15T00:24:14.869Z,69.72
2018-06-15T00:25:25.027Z,69.34
2018-06-15T00:26:35.166Z,69.62
2018-06-15T00:27:45.391Z,69.62
2018-06-15T00:28:55.673Z,70.1
2018-06-15T00:30:05.884Z,69.62
2018-06-15T00:31:16.049Z,70.1
2018-06-15T00:32:26.236Z,70.01
2018-06-15T00:33:36.571Z,70.01
2018-06-15T00:34:46.731Z,70.01
2018-06-15T00:35:56.867Z,69.81
2018-06-15T00:37:07.074Z,69.72
2018-06-15T00:38:17.258Z,69.81
2018-06-15T00:39:27.730Z,70.01
2018-06-15T00:40:37.867Z,69.81
2018-06-15T00:41:48.076Z,69.81
2018-06-15T00:42:58.228Z,69.91
2018-06-15T00:44:08.381Z,70.01
2018-06-15T00:45:18.784Z,70.01
2018-06-15T00:46:28.998Z,69.91
2018-06-15T00:47:38.869Z,70.49
2018-06-15T00:48:49.025Z,70.49
2018-06-15T00:49:59.326Z,69.91
2018-06-15T00:51:09.485Z,69.81
2018-06-15T00:52:19.628Z,70.39
2018-06-15T00:53:29.832Z,70.68
2018-06-15T00:54:40.032Z,70.39
2018-06-15T00:55:50.216Z,70.29
2018-06-15T00:57:00.466Z,70.29
2018-06-15T00:58:10.747Z,70.78
2018-06-15T00:59:20.897Z,70.68
2018-06-15T01:00:31.132Z,70.39
2018-06-15T01:01:41.292Z,70.39
2018-06-15T01:02:51.448Z,70.29
2018-06-15T01:04:01.681Z,70.39
2018-06-15T01:05:11.923Z,70.87
2018-06-15T01:06:22.100Z,71.06
2018-06-15T01:07:32.112Z,70.39
2018-06-15T01:08:42.281Z,70.39
2018-06-15T01:09:52.372Z,70.78
2018-06-15T01:11:02.566Z,70.78
2018-06-15T01:12:12.719Z,70.68
2018-06-15T01:13:22.913Z,71.25
2018-06-15T01:14:33.062Z,70.78
2018-06-15T01:15:42.949Z,71.16
2018-06-15T01:16:53.234Z,71.25
2018-06-15T01:18:03.408Z,71.25
2018-06-15T01:19:13.298Z,71.06
2018-06-15T01:20:23.452Z,71.16
2018-06-15T01:21:33.427Z,71.06
2018-06-15T01:22:43.807Z,71.25
2018-06-15T01:23:54.065Z,71.25
2018-06-15T01:25:03.984Z,70.78
2018-06-15T01:26:13.749Z,70.87
2018-06-15T01:27:23.945Z,70.97
2018-06-15T01:28:34.105Z,71.06
2018-06-15T01:29:45.098Z,70.68
2018-06-15T01:30:55.273Z,70.97
2018-06-15T01:32:05.419Z,70.97
2018-06-15T01:33:15.631Z,70.78
2018-06-15T01:34:25.766Z,70.87
2018-06-15T01:35:35.891Z,70.78
2018-06-15T01:36:46.042Z,70.78
2018-06-15T01:37:55.914Z,70.58
2018-06-15T01:39:06.036Z,70.58
2018-06-15T01:40:16.257Z,70.68
2018-06-15T01:41:26.422Z,70.78
2018-06-15T01:42:36.565Z,71.16
2018-06-15T01:43:46.798Z,71.16
2018-06-15T01:44:56.944Z,71.25
2018-06-15T01:46:07.094Z,71.64
2018-06-15T01:47:17.230Z,71.25
2018-06-15T01:48:27.371Z,71.55
2018-06-15T01:49:37.528Z,71.35
2018-06-15T01:50:47.733Z,71.45
2018-06-15T01:51:57.878Z,71.25
2018-06-15T01:53:08.045Z,71.55
2018-06-15T01:54:18.306Z,71.45
2018-06-15T01:55:28.567Z,71.16
2018-06-15T01:56:38.820Z,71.35
2018-06-15T01:57:48.686Z,71.55
2018-06-15T01:58:58.846Z,71.45
2018-06-15T02:00:08.982Z,71.55
2018-06-15T02:01:19.233Z,72.12
2018-06-15T02:02:30.485Z,72.12
2018-06-15T02:03:40.652Z,72.02
2018-06-15T02:04:50.801Z,71.35
2018-06-15T02:06:01.016Z,71.35
2018-06-15T02:07:11.177Z,71.55
2018-06-15T02:08:21.342Z,71.25
2018-06-15T02:09:31.454Z,71.35
2018-06-15T02:10:41.597Z,71.25
2018-06-15T02:11:51.729Z,71.35
2018-06-15T02:13:01.921Z,71.35
2018-06-15T02:14:12.084Z,71.06
2018-06-15T02:15:22.274Z,71.35
2018-06-15T02:16:32.477Z,70.68
2018-06-15T02:17:42.652Z,70.68
2018-06-15T02:18:53.054Z,70.78
2018-06-15T02:20:02.953Z,71.35
2018-06-15T02:21:13.113Z,71.45
2018-06-15T02:22:23.250Z,71.31
2018-06-15T02:23:33.402Z,71.12
2018-06-15T02:24:43.566Z,71.55
2018-06-15T02:25:53.777Z,71.51
2018-06-15T02:27:04.118Z,71.51
2018-06-15T02:28:14.311Z,71.51
2018-06-15T02:29:24.493Z,71.8
2018-06-15T02:30:34.706Z,72.08
2018-06-15T02:31:44.922Z,71.8
2018-06-15T02:32:55.126Z,71.7
2018-06-15T02:34:05.299Z,71.61
2018-06-15T02:35:15.495Z,71.8
2018-06-15T02:36:25.663Z,71.89
2018-06-15T02:37:35.867Z,71.98
2018-06-15T02:38:46.006Z,72.37
2018-06-15T02:39:56.512Z,72.28
2018-06-15T02:41:06.680Z,72.08
2018-06-15T02:42:16.838Z,72.47
2018-06-15T02:43:26.829Z,72.66
2018-06-15T02:44:37.181Z,72.37
2018-06-15T02:45:47.305Z,72.66
2018-06-15T02:46:57.519Z,72.95
2018-06-15T02:48:07.908Z,72.85
2018-06-15T02:49:18.047Z,72.56
2018-06-15T02:50:28.167Z,72.75
2018-06-15T02:51:38.304Z,72.85
2018-06-15T02:52:48.435Z,72.95
2018-06-15T02:53:58.691Z,72.75
2018-06-15T02:55:08.963Z,72.85
2018-06-15T02:56:18.879Z,72.69
2018-06-15T02:57:29.054Z,72.79
2018-06-15T02:58:39.200Z,72.6
2018-06-15T02:59:49.070Z,72.69
2018-06-15T03:00:59.213Z,72.6
2018-06-15T03:02:09.397Z,72.69
2018-06-15T03:03:19.287Z,72.6
2018-06-15T03:04:29.430Z,72.69
2018-06-15T03:05:39.575Z,72.69
2018-06-15T03:06:49.740Z,72.89
2018-06-15T03:07:59.878Z,72.79
2018-06-15T03:09:10.059Z,73.08
2018-06-15T03:10:20.228Z,72.69
2018-06-15T03:11:30.511Z,72.5
2018-06-15T03:12:40.747Z,72.79
2018-06-15T03:13:50.912Z,72.6
2018-06-15T03:15:01.286Z,72.41
2018-06-15T03:16:11.176Z,72.89
2018-06-15T03:17:20.951Z,72.79
2018-06-15T03:18:31.095Z,72.69
2018-06-15T03:19:41.247Z,72.79
2018-06-15T03:20:51.382Z,72.79
2018-06-15T03:22:01.719Z,72.5
2018-06-15T03:23:12.070Z,72.12
2018-06-15T03:24:22.204Z,72.89
2018-06-15T03:25:32.346Z,72.79
2018-06-15T03:26:42.505Z,72.79
2018-06-15T03:27:52.670Z,72.99
2018-06-15T03:29:02.938Z,72.69
2018-06-15T03:30:13.127Z,72.12
2018-06-15T03:31:23.285Z,72.31
2018-06-15T03:32:33.425Z,71.83
2018-06-15T03:33:43.579Z,72.31
2018-06-15T03:34:53.944Z,72.79
2018-06-15T03:36:04.176Z,72.6
2018-06-15T03:37:14.052Z,72.6
2018-06-15T03:38:24.210Z,72.6
2018-06-15T03:39:34.409Z,72.79
2018-06-15T03:40:44.610Z,72.6
2018-06-15T03:41:54.757Z,72.99
2018-06-15T03:43:05.013Z,72.22
2018-06-15T03:44:15.163Z,72.6
2018-06-15T03:45:25.316Z,72.6
2018-06-15T03:46:35.484Z,72.69
2018-06-15T03:47:45.371Z,72.69
2018-06-15T03:48:55.289Z,73.08
2018-06-15T03:50:05.170Z,73.08
2018-06-15T03:51:15.065Z,73.08
2018-06-15T03:52:25.294Z,72.69
2018-06-15T03:53:35.517Z,72.6
2018-06-15T03:54:45.449Z,72.79
2018-06-15T03:55:55.692Z,72.99
2018-06-15T03:57:05.617Z,72.69
2018-06-15T03:58:15.820Z,72.79
2018-06-15T03:59:25.980Z,72.79
2018-06-15T04:00:35.890Z,72.89
2018-06-15T04:01:46.040Z,72.89
2018-06-15T04:02:56.397Z,72.99
2018-06-15T04:04:06.617Z,72.69
2018-06-15T04:05:16.909Z,73.08
2018-06-15T04:06:27.094Z,72.89
2018-06-15T04:07:37.305Z,72.69
2018-06-15T04:08:47.750Z,73.08
2018-06-15T04:09:57.912Z,73.08
2018-06-15T04:11:08.264Z,73.08
2018-06-15T04:12:18.439Z,72.79
2018-06-15T04:13:28.583Z,72.99
2018-06-15T04:14:38.706Z,73.08
2018-06-15T04:15:49.049Z,72.69
2018-06-15T04:16:59.405Z,72.6
2018-06-15T04:18:09.585Z,72.83
2018-06-15T04:19:19.768Z,72.79
2018-06-15T04:20:29.903Z,72.54
2018-06-15T04:21:40.025Z,72.12
2018-06-15T04:22:50.261Z,72.22
2018-06-15T04:24:00.395Z,72.12
2018-06-15T04:25:10.616Z,72.34
2018-06-15T04:26:20.844Z,72.16
2018-06-15T04:27:30.980Z,72.34
2018-06-15T04:28:41.119Z,72.54
2018-06-15T04:29:51.258Z,72.44
2018-06-15T04:31:01.417Z,72.44
2018-06-15T04:32:11.592Z,72.54
2018-06-15T04:33:21.785Z,72.34
2018-06-15T04:34:32.013Z,72.34
2018-06-15T04:35:42.259Z,72.25
2018-06-15T04:36:52.423Z,72.25
2018-06-15T04:38:02.598Z,72.34
2018-06-15T04:39:12.752Z,72.34
2018-06-15T04:40:22.715Z,72.25
2018-06-15T04:41:32.878Z,71.96
2018-06-15T04:42:43.009Z,72.83
2018-06-15T04:43:53.287Z,72.83
2018-06-15T04:45:03.627Z,72.64
2018-06-15T04:46:13.781Z,72.64
2018-06-15T04:47:23.573Z,72.73
2018-06-15T04:48:33.489Z,72.92
2018-06-15T04:49:43.630Z,72.64
2018-06-15T04:50:53.783Z,72.92
2018-06-15T04:52:03.924Z,73.41
2018-06-15T04:53:14.047Z,73.5
2018-06-15T04:54:24.412Z,73.41
2018-06-15T04:55:34.563Z,73.31
2018-06-15T04:56:44.761Z,73.41
2018-06-15T04:57:54.678Z,73.31
2018-06-15T04:59:04.831Z,73.41
2018-06-15T05:00:16.019Z,73.88
2018-06-15T05:01:26.225Z,73.41
2018-06-15T05:02:36.415Z,73.41
2018-06-15T05:03:46.571Z,73.5
2018-06-15T05:04:56.729Z,73.79
2018-06-15T05:06:06.962Z,73.69
2018-06-15T05:07:17.120Z,73.6
2018-06-15T05:08:27.309Z,73.69
2018-06-15T05:10:50.931Z,73.21
2018-06-15T05:12:01.087Z,73.6
2018-06-15T05:13:11.276Z,73.31
2018-06-15T05:14:21.458Z,73.41
2018-06-15T05:15:31.635Z,73.31
2018-06-15T05:16:41.997Z,73.6
2018-06-15T05:17:52.235Z,73.6
2018-06-15T05:19:02.423Z,73.6
2018-06-15T05:20:12.821Z,73.11
2018-06-15T05:21:23.001Z,73.31
2018-06-15T05:22:33.138Z,73.41
2018-06-15T05:23:42.945Z,73.5
2018-06-15T05:24:53.127Z,73.41
2018-06-15T05:26:03.264Z,73.31
2018-06-15T05:27:13.422Z,73.11
2018-06-15T05:28:23.556Z,73.31
2018-06-15T05:29:33.316Z,73.5
2018-06-15T05:30:43.240Z,73.41
2018-06-15T05:31:53.122Z,73.31
2018-06-15T05:33:03.313Z,73.5
2018-06-15T05:34:13.496Z,73.31
2018-06-15T05:35:23.755Z,72.92
2018-06-15T05:36:33.828Z,72.83
2018-06-15T05:37:43.981Z,73.41
2018-06-15T05:38:54.271Z,73.31
2018-06-15T05:40:04.447Z,73.31
2018-06-15T05:41:14.589Z,73.6
2018-06-15T05:42:24.755Z,73.21
2018-06-15T05:43:34.988Z,73.41
2018-06-15T05:44:45.198Z,73.31
2018-06-15T05:45:55.489Z,73.31
2018-06-15T05:47:05.660Z,73.21
2018-06-15T05:48:15.861Z,73.5
2018-06-15T05:49:26.234Z,73.31
2018-06-15T05:50:36.187Z,73.5
2018-06-15T05:51:46.362Z,73.5
2018-06-15T05:52:56.528Z,73.35
2018-06-15T05:54:06.689Z,73.35
2018-06-15T05:55:16.945Z,73.73
2018-06-15T05:56:27.128Z,73.35
2018-06-15T05:57:37.290Z,73.54
2018-06-15T05:58:47.635Z,73.35
2018-06-15T05:59:57.546Z,73.35
2018-06-15T06:01:07.690Z,73.44
2018-06-15T06:02:18.066Z,73.44
2018-06-15T06:03:28.221Z,73.15
2018-06-15T06:04:38.425Z,73.15
2018-06-15T06:05:48.567Z,72.96
2018-06-15T06:06:58.751Z,72.86
2018-06-15T06:08:08.879Z,72.67
2018-06-15T06:09:19.040Z,73.06
2018-06-15T06:10:29.167Z,73.15
2018-06-15T06:11:39.370Z,73.15
2018-06-15T06:12:49.608Z,73.15
2018-06-15T06:13:59.887Z,73.35
2018-06-15T06:15:10.187Z,73.73
2018-06-15T06:16:20.350Z,74.02
2018-06-15T06:17:30.547Z,73.63
2018-06-15T06:18:40.739Z,73.83
2018-06-15T06:19:51.048Z,73.63
2018-06-15T06:21:01.355Z,74.3
2018-06-15T06:22:11.488Z,74.3
2018-06-15T06:23:21.753Z,74.3
2018-06-15T06:24:31.903Z,74.4
2018-06-15T06:25:42.177Z,74.02
2018-06-15T06:26:52.486Z,74.11
2018-06-15T06:28:02.883Z,74.11
2018-06-15T06:29:13.080Z,74.21
2018-06-15T06:30:23.440Z,74.11
2018-06-15T06:31:33.688Z,74.4
2018-06-15T06:32:43.919Z,74.6
2018-06-15T06:33:55.034Z,74.3
2018-06-15T06:35:05.045Z,74.5
2018-06-15T06:36:15.175Z,74.3
2018-06-15T06:37:25.310Z,74.3
2018-06-15T06:38:35.443Z,74.11
2018-06-15T06:39:45.776Z,74.3
2018-06-15T06:40:55.973Z,74.4
2018-06-15T06:42:06.193Z,74.11
2018-06-15T06:43:16.442Z,73.92
2018-06-15T06:44:26.287Z,74.4
2018-06-15T06:45:36.404Z,74.3
2018-06-15T06:46:46.294Z,74.4
2018-06-15T06:47:56.442Z,74.69
2018-06-15T06:49:06.684Z,74.69
2018-06-15T06:50:16.823Z,74.88
2018-06-15T06:51:26.995Z,74.79
2018-06-15T06:52:37.210Z,74.88
2018-06-15T06:53:47.355Z,74.98
2018-06-15T06:54:57.281Z,75.17
2018-06-15T06:56:07.248Z,75.37
2018-06-15T06:57:17.129Z,75.27
2018-06-15T06:58:27.086Z,75.27
2018-06-15T06:59:37.333Z,74.98
2018-06-15T07:00:47.466Z,75.27
2018-06-15T07:01:57.597Z,75.17
2018-06-15T07:03:07.559Z,75.07
2018-06-15T07:04:17.338Z,75.75
2018-06-15T07:05:27.633Z,75.56
2018-06-15T07:06:38.176Z,75.65
2018-06-15T07:07:48.537Z,75.84
2018-06-15T07:08:58.823Z,75.75
2018-06-15T07:10:08.680Z,76.04
2018-06-15T07:11:18.571Z,76.23
2018-06-15T07:12:28.725Z,76.23
2018-06-15T07:13:38.866Z,76.42
2018-06-15T07:14:49.014Z,76.9
2018-06-15T07:15:59.239Z,77
2018-06-15T07:17:09.471Z,77.38
2018-06-15T07:18:19.712Z,77.76
2018-06-15T07:19:29.864Z,78.34
2018-06-15T07:20:40.078Z,78.88
2018-06-15T07:21:50.289Z,79.46
2018-06-15T07:23:00.663Z,79.65
2018-06-15T07:24:10.806Z,81.19
2018-06-15T07:25:20.973Z,80.99
2018-06-15T07:26:31.164Z,81.57
2018-06-15T07:27:41.341Z,81.38
2018-06-15T07:28:51.643Z,81.57
2018-06-15T07:30:01.881Z,81.82
2018-06-15T07:31:12.085Z,82.15
2018-06-15T07:32:22.275Z,81.92
2018-06-15T07:33:32.587Z,82.24
2018-06-15T07:34:42.752Z,82.34
2018-06-15T07:35:52.280Z,82.24
2018-06-15T07:37:02.420Z,83.11
2018-06-15T07:38:12.636Z,81.96
2018-06-15T07:39:22.793Z,82.05
2018-06-15T07:40:33.004Z,82.43
2018-06-15T07:41:42.882Z,82.53
2018-06-15T07:42:53.086Z,82.92
2018-06-15T07:44:04.216Z,83.11
2018-06-15T07:45:14.397Z,83.11
2018-06-15T07:46:24.570Z,82.34
2018-06-15T07:47:34.789Z,82.53
2018-06-15T07:48:44.980Z,82.34
2018-06-15T07:49:55.259Z,82.34
2018-06-15T07:51:05.432Z,82.53
2018-06-15T07:52:15.682Z,82.53
2018-06-15T07:53:25.579Z,83.11
2018-06-15T07:54:35.517Z,83.01
2018-06-15T07:55:45.459Z,82.92
2018-06-15T07:56:55.006Z,83.11
2018-06-15T07:58:05.382Z,82.96
2018-06-15T07:59:15.524Z,83.06
2018-06-15T08:00:25.796Z,82.67
2018-06-15T08:01:36.010Z,83.15
2018-06-15T08:02:46.156Z,83.34
2018-06-15T08:03:56.315Z,83.06
2018-06-15T08:05:06.476Z,82.76
2018-06-15T08:06:16.625Z,83.25
2018-06-15T08:07:27.011Z,82.38
2018-06-15T08:08:37.192Z,82.29
2018-06-15T08:09:47.363Z,82.38
2018-06-15T08:10:57.684Z,82.29
2018-06-15T08:12:07.616Z,82.38
2018-06-15T08:13:17.775Z,81.99
2018-06-15T08:14:27.913Z,82.19
2018-06-15T08:15:38.103Z,82.48
2018-06-15T08:16:48.041Z,82.86
2018-06-15T08:17:58.191Z,83.34
2018-06-15T08:19:08.341Z,83.44
2018-06-15T08:20:18.508Z,82.86
2018-06-15T08:21:28.642Z,83.15
2018-06-15T08:22:38.794Z,83.06
2018-06-15T08:23:48.950Z,82.96
2018-06-15T08:24:59.086Z,82.86
2018-06-15T08:26:09.485Z,82.96
2018-06-15T08:27:19.833Z,83.15
2018-06-15T08:28:30.046Z,82.67
2018-06-15T08:29:40.256Z,83.15
2018-06-15T08:30:50.449Z,83.44
2018-06-15T08:32:00.630Z,84.11
2018-06-15T08:33:10.801Z,84.21
2018-06-15T08:34:20.751Z,84.78
2018-06-15T08:35:30.597Z,84.11
2018-06-15T08:36:40.779Z,84.74
2018-06-15T08:37:50.910Z,84.36
2018-06-15T08:39:01.127Z,84.26
2018-06-15T08:40:11.350Z,84.45
2018-06-15T08:41:21.511Z,84.84
2018-06-15T08:42:31.729Z,85.03
2018-06-15T08:43:41.955Z,84.94
2018-06-15T08:44:52.189Z,85.99
2018-06-15T08:46:02.422Z,86.18
2018-06-15T08:47:12.362Z,85.71
2018-06-15T08:48:22.535Z,85.71
2018-06-15T08:49:32.681Z,86.57
2018-06-15T08:50:42.889Z,85.99
2018-06-15T08:51:53.102Z,87.05
2018-06-15T08:53:03.436Z,87.24
2018-06-15T08:54:13.607Z,86.38
2018-06-15T08:55:23.755Z,86.76
2018-06-15T08:56:33.921Z,86.66
2018-06-15T08:57:44.090Z,86.66
2018-06-15T08:58:54.647Z,86.38
2018-06-15T09:00:04.825Z,87.05
2018-06-15T09:01:14.963Z,86.57
2018-06-15T09:02:25.135Z,86.85
2018-06-15T09:03:35.313Z,86.85
2018-06-15T09:04:45.474Z,87.34
2018-06-15T09:05:55.731Z,86.95
2018-06-15T09:07:05.893Z,87.15
2018-06-15T09:08:16.133Z,86.76
2018-06-15T09:09:26.416Z,87.05
2018-06-15T09:10:36.589Z,87.15
2018-06-15T09:11:46.784Z,86.38
2018-06-15T09:12:57.099Z,85.99
2018-06-15T09:14:07.275Z,86.18
2018-06-15T09:15:17.571Z,85.61
2018-06-15T09:16:27.732Z,85.51
2018-06-15T09:17:37.969Z,85.75
2018-06-15T09:18:48.162Z,85.28
2018-06-15T09:19:58.312Z,86.05
2018-06-15T09:21:08.576Z,85.85
2018-06-15T09:22:18.887Z,85.95
2018-06-15T09:23:29.124Z,86.33
2018-06-15T09:24:39.348Z,85.57
2018-06-15T09:25:49.699Z,86.05
2018-06-15T09:26:59.861Z,85.95
2018-06-15T09:28:10.014Z,85.57
2018-06-15T09:29:20.202Z,85.66
2018-06-15T09:30:30.102Z,85.75
2018-06-15T09:31:40.247Z,86.14
2018-06-15T09:32:50.483Z,87.01
2018-06-15T09:34:00.654Z,87.19
2018-06-15T09:35:10.837Z,87.29
2018-06-15T09:36:20.977Z,87.19
2018-06-15T09:37:31.361Z,87.01
2018-06-15T09:38:41.527Z,86.62
2018-06-15T09:39:51.341Z,86.62
2018-06-15T09:41:01.490Z,86.81
2018-06-15T09:42:11.637Z,86.81
2018-06-15T09:43:21.884Z,87.01
2018-06-15T09:44:32.064Z,86.72
2018-06-15T09:45:42.253Z,86.43
2018-06-15T09:46:52.590Z,86.05
2018-06-15T09:48:02.814Z,86.05
2018-06-15T09:49:13.016Z,86.43
2018-06-15T09:50:23.229Z,86.18
2018-06-15T09:51:33.485Z,86.14
2018-06-15T09:52:43.684Z,86.43
2018-06-15T09:53:54.017Z,86.72
2018-06-15T09:55:03.936Z,86.38
2018-06-15T09:56:14.252Z,86.85
2018-06-15T09:57:24.499Z,86.47
2018-06-15T09:58:34.283Z,86.66
2018-06-15T09:59:44.472Z,86.09
2018-06-15T10:00:54.653Z,85.8
2018-06-15T10:02:05.021Z,85.71
2018-06-15T10:03:15.208Z,85.71
2018-06-15T10:04:25.477Z,85.89
2018-06-15T10:05:35.379Z,86.28
2018-06-15T10:06:45.523Z,85.99
2018-06-15T10:07:55.683Z,85.89
2018-06-15T10:09:06.099Z,85.89
2018-06-15T10:10:16.260Z,85.71
2018-06-15T10:11:26.521Z,85.51
2018-06-15T10:12:36.681Z,85.13
2018-06-15T10:13:46.905Z,85.51
2018-06-15T10:14:57.057Z,85.13
2018-06-15T10:16:07.248Z,84.84
2018-06-15T10:17:17.432Z,85.13
2018-06-15T10:18:27.619Z,84.74
2018-06-15T10:19:37.819Z,84.74
2018-06-15T10:20:47.991Z,84.45
2018-06-15T10:21:58.225Z,84.64
2018-06-15T10:23:08.371Z,84.55
2018-06-15T10:24:18.282Z,83.87
2018-06-15T10:25:28.520Z,83.97
2018-06-15T10:26:38.674Z,84.26
2018-06-15T10:27:48.814Z,84.07
2018-06-15T10:28:58.989Z,83.87
2018-06-15T10:30:09.146Z,84.17
2018-06-15T10:31:19.328Z,84.74
2018-06-15T10:32:29.525Z,84.21
2018-06-15T10:33:39.689Z,83.83
2018-06-15T10:34:49.837Z,82.96
2018-06-15T10:36:00.022Z,82.96
2018-06-15T10:37:10.187Z,82.96
2018-06-15T10:38:20.412Z,82.09
2018-06-15T10:39:30.621Z,82.57
2018-06-15T10:40:41.040Z,82.38
2018-06-15T10:41:51.207Z,82.48
2018-06-15T10:43:02.329Z,82.48
2018-06-15T10:44:12.521Z,81.99
2018-06-15T10:45:22.670Z,82.19
2018-06-15T10:46:32.916Z,81.99
2018-06-15T10:47:43.131Z,81.75
2018-06-15T10:48:53.404Z,81.37
2018-06-15T10:50:03.582Z,81.65
2018-06-15T10:51:13.794Z,81.37
2018-06-15T10:52:24.015Z,80.63
2018-06-15T10:53:34.179Z,80.73
2018-06-15T10:54:44.344Z,80.25
2018-06-15T10:55:54.649Z,80.25
2018-06-15T10:57:04.904Z,79.9
2018-06-15T10:58:15.076Z,79.03
2018-06-15T10:59:25.303Z,78.75
2018-06-15T11:00:35.624Z,78.65
2018-06-15T11:01:45.837Z,77.98
2018-06-15T11:02:56.026Z,77.78
2018-06-15T11:04:06.221Z,77.73
2018-06-15T11:05:16.155Z,77.44
2018-06-15T11:06:27.533Z,77.15
2018-06-15T11:07:38.096Z,77
2018-06-15T11:08:48.256Z,76.71
2018-06-15T11:09:58.198Z,75.16
2018-06-15T11:11:08.457Z,74.78
2018-06-15T11:12:18.646Z,74.58
2018-06-15T11:13:28.949Z,74.62
2018-06-15T11:14:39.218Z,74.43
2018-06-15T11:15:49.534Z,74.37
2018-06-15T11:16:59.692Z,73.6
2018-06-15T11:18:09.844Z,72.92
2018-06-15T11:19:20.042Z,73.02
2018-06-15T11:20:30.247Z,73.21
2018-06-15T11:21:40.423Z,73.31
2018-06-15T11:22:50.773Z,72.92
2018-06-15T11:24:01.044Z,72.83
2018-06-15T11:25:11.229Z,73.06
2018-06-15T11:26:21.473Z,72.58
2018-06-15T11:27:31.859Z,71.22
2018-06-15T11:28:42.037Z,70.64
2018-06-15T11:29:51.951Z,70.74
2018-06-15T11:31:16.721Z,71.12
2018-06-15T11:32:26.921Z,71.03
2018-06-15T11:33:37.106Z,71.51
2018-06-15T11:34:47.274Z,70.97
2018-06-15T11:35:57.496Z,70.68
2018-06-15T11:37:07.665Z,70.39
2018-06-15T11:38:17.861Z,70.14
2018-06-15T11:39:27.765Z,69.68
2018-06-15T11:40:37.963Z,69.3
2018-06-15T11:41:48.136Z,67.88
2018-06-15T11:42:58.185Z,66.75
2018-06-15T11:44:08.334Z,66.56
2018-06-15T11:45:18.571Z,66.02
2018-06-15T11:46:28.760Z,65.24
2018-06-15T11:47:39.080Z,64.98
2018-06-15T11:48:49.365Z,64.11
2018-06-15T11:49:59.574Z,63.14
2018-06-15T11:51:09.977Z,63.14
2018-06-15T11:52:20.146Z,61.21
2018-06-15T11:53:30.356Z,61.3
2018-06-15T11:54:40.249Z,61.88
2018-06-15T11:55:50.549Z,61.98
2018-06-15T11:57:00.751Z,60.82
2018-06-15T11:58:11.053Z,60.24
2018-06-15T11:59:21.353Z,59.1
2018-06-15T12:00:31.630Z,58.36
2018-06-15T12:01:41.819Z,54.58
2018-06-15T12:02:51.736Z,56.83
2018-06-15T12:04:01.675Z,57.12
2018-06-15T12:05:12.783Z,57.06
2018-06-15T12:06:26.037Z,56.01
2018-06-15T12:07:36.262Z,55.43
2018-06-15T12:08:46.514Z,55.55
2018-06-15T12:09:57.631Z,54.94
2018-06-15T12:11:07.839Z,52.81
2018-06-15T12:12:18.160Z,53.27
2018-06-15T12:13:28.120Z,53.08
2018-06-15T12:14:38.292Z,53.24
2018-06-15T12:15:48.494Z,52.18
2018-06-15T12:16:58.666Z,51.5
2018-06-15T12:18:08.858Z,51.96
2018-06-15T12:19:19.046Z,53.02
2018-06-15T12:20:29.250Z,53.41
2018-06-15T12:21:39.460Z,53.51
2018-06-15T12:22:49.717Z,54.48
2018-06-15T12:24:00.204Z,54.94
2018-06-15T12:25:10.545Z,54.67
2018-06-15T12:26:20.824Z,55.04
2018-06-15T12:27:31.022Z,54.86
2018-06-15T12:28:41.353Z,55.04
2018-06-15T12:29:51.596Z,55.04
2018-06-15T12:31:01.815Z,55.62
2018-06-15T12:32:13.108Z,55.54
2018-06-15T12:33:23.272Z,55.44
2018-06-15T12:34:33.479Z,55.16
2018-06-15T12:35:43.708Z,54.67
2018-06-15T12:36:53.966Z,54.67
2018-06-15T12:38:04.397Z,54.28
2018-06-15T12:39:14.727Z,53.67
2018-06-15T12:40:24.921Z,53.87
2018-06-15T12:41:35.146Z,53.09
2018-06-15T12:42:45.526Z,53.29
2018-06-15T12:43:55.726Z,52.61
2018-06-15T12:45:05.883Z,52.73
2018-06-15T12:46:16.127Z,52.9
2018-06-15T12:47:26.368Z,51.09
2018-06-15T12:48:36.287Z,49.8
2018-06-15T12:49:50.813Z,50.87
2018-06-15T12:51:00.741Z,51.25
2018-06-15T12:52:10.939Z,51.93
2018-06-15T12:53:20.502Z,52.51
2018-06-15T12:54:30.481Z,52.22
2018-06-15T12:55:40.321Z,52.12
2018-06-15T12:56:50.510Z,51.64
2018-06-15T12:58:00.752Z,51.93
2018-06-15T12:59:10.414Z,51.74
2018-06-15T13:00:20.602Z,52.51
2018-06-15T13:01:30.873Z,50.87
2018-06-15T13:02:40.883Z,49.41
2018-06-15T13:03:50.725Z,49.12
2018-06-15T13:05:00.703Z,49.41
2018-06-15T13:06:10.564Z,49.61
2018-06-15T13:07:20.228Z,49.7
2018-06-15T13:08:30.009Z,49.9
2018-06-15T13:09:40.854Z,50.48
2018-06-15T13:10:51.131Z,49.41
2018-06-15T13:12:01.082Z,49.49
2018-06-15T13:13:11.022Z,49.87
2018-06-15T13:14:21.287Z,50.65
2018-06-15T13:15:30.832Z,49.97
2018-06-15T13:16:40.761Z,49.99
2018-06-15T13:17:51.070Z,50.45
2018-06-15T13:19:01.389Z,49.87
2018-06-15T13:20:11.594Z,49.39
2018-06-15T13:21:21.474Z,49.87
2018-06-15T13:22:31.139Z,50.45
2018-06-15T13:23:41.320Z,50.65
2018-06-15T13:24:51.537Z,49.87
2018-06-15T13:26:01.745Z,49.1
2018-06-15T13:27:12.629Z,49.37
2018-06-15T13:28:22.341Z,49.37
2018-06-15T13:29:32.210Z,49.75
2018-06-15T13:30:42.156Z,49.85
2018-06-15T13:31:51.455Z,49.92
2018-06-15T13:33:00.793Z,50.02
2018-06-15T13:34:10.748Z,50.6
2018-06-15T13:35:20.976Z,50.5
2018-06-15T13:36:30.913Z,50.4
2018-06-15T13:37:40.876Z,50.79
2018-06-15T13:38:51.092Z,51.37
2018-06-15T13:40:00.931Z,51.28
2018-06-15T13:41:11.372Z,51.37
2018-06-15T13:42:21.063Z,51.35
2018-06-15T13:43:31.296Z,51.37
2018-06-15T13:44:41.172Z,51.35
2018-06-15T13:45:51.176Z,51.25
2018-06-15T13:47:01.212Z,50.89
2018-06-15T13:48:11.437Z,50.98
2018-06-15T13:49:21.641Z,51.28
2018-06-15T13:50:31.568Z,50.57
2018-06-15T13:51:41.504Z,51.18
2018-06-15T13:52:51.459Z,51.66
2018-06-15T13:54:01.113Z,51.28
2018-06-15T13:55:10.417Z,51.66
2018-06-15T13:56:20.711Z,51.56
2018-06-15T13:57:30.631Z,51.37
2018-06-15T13:58:40.877Z,51.37
2018-06-15T13:59:51.025Z,51.28
2018-06-15T14:01:01.199Z,51.56
2018-06-15T14:02:11.354Z,51.37
2018-06-15T14:03:21.020Z,50.98
2018-06-15T14:04:30.946Z,50.79
2018-06-15T14:05:40.885Z,51.08
2018-06-15T14:06:51.223Z,51.01
2018-06-15T14:08:01.302Z,50.52
2018-06-15T14:09:11.537Z,50.33
2018-06-15T14:10:21.477Z,50.04
2018-06-15T14:11:31.421Z,49.65
2018-06-15T14:12:41.474Z,49.19
2018-06-15T14:13:51.497Z,49.1
2018-06-15T14:15:01.438Z,49.39
2018-06-15T14:16:11.106Z,49
2018-06-15T14:17:21.283Z,48.52
2018-06-15T14:18:31.590Z,48.83
2018-06-15T14:19:41.790Z,48.83
2018-06-15T14:20:51.751Z,48.15
2018-06-15T14:22:01.597Z,47.96
2018-06-15T14:23:11.925Z,48.15
2018-06-15T14:24:24.601Z,47.4
2018-06-15T14:25:34.379Z,47.4
2018-06-15T14:26:45.576Z,47.2
2018-06-15T14:27:57.922Z,46.92
2018-06-15T14:29:11.927Z,46.92
2018-06-15T14:30:24.810Z,47.11
2018-06-15T14:31:34.732Z,46.75
2018-06-15T14:32:44.982Z,47.3
2018-06-15T14:33:55.403Z,46.84
2018-06-15T14:35:05.359Z,46.94
2018-06-15T14:36:15.608Z,46.94
2018-06-15T14:37:25.816Z,46.07
2018-06-15T14:38:35.905Z,46.55
2018-06-15T14:39:46.107Z,45.87
2018-06-15T14:40:55.916Z,45.87
2018-06-15T14:42:06.105Z,45.97
2018-06-15T14:43:16.348Z,45.97
2018-06-15T14:44:26.598Z,45.39
2018-06-15T14:45:36.820Z,44.9
2018-06-15T14:46:47.083Z,45.58
2018-06-15T14:47:57.388Z,45.68
2018-06-15T14:49:07.231Z,45.58
2018-06-15T14:50:16.399Z,45.68
2018-06-15T14:51:26.897Z,45.48
2018-06-15T14:52:36.208Z,45.56
2018-06-15T14:53:46.430Z,45.65
2018-06-15T14:54:56.532Z,46.26
2018-06-15T14:56:06.431Z,46.43
2018-06-15T14:57:16.682Z,46.43
2018-06-15T14:58:26.691Z,47.3
2018-06-15T14:59:37.321Z,47.2
2018-06-15T15:00:47.253Z,47.69
2018-06-15T15:01:56.740Z,47.3
2018-06-15T15:03:06.706Z,47.69
2018-06-15T15:04:16.385Z,48.18
2018-06-15T15:05:26.242Z,48.37
2018-06-15T15:06:36.477Z,48.37
2018-06-15T15:07:46.394Z,48.27
2018-06-15T15:08:56.813Z,48.18